• Join FlightAware (Why Join?)
  • Login
  • US Flag 
06:15AM EDT


 

Airport Tracker/Info


-or-


 

Live Flight TrackerFlight Track Log ✈ SWA1103 ✈ 29-Apr-2013 ✈ KMDW - KPDX

Flight Track Log - Related Links

Times and Time Zones

All times are in EDT time to prevent confusion due to time zone crossing. See the SWA1103 flight status page for this flight to view local times or setup timezone preferences in your user account.

Time Position Orientation Groundspeed Altitude Reporting Facility
EDT Latitude Longitude Course Direction KTS MPH feet Rate Location/Type
08:19PM 41.7667 -87.7833 255° West 170 196 2,100  Level Chicago TRACON
08:19PM 41.7500 -87.8667 255° West 236 272 3,900 1,140 Climbing Chicago TRACON
08:20PM 41.7539 -87.9169 276° West 245 282 4,000 1,080 Climbing Chicago Center
08:21PM 41.7578 -88.0106 273° West 254 292 5,800 960 Climbing Chicago Center
08:22PM 41.7872 -88.1153 291° West 272 313 6,000 780 Climbing Chicago Center
08:23PM 41.8333 -88.1914 309° West 267 307 7,500 2,340 Climbing Chicago Center
08:24PM 41.8644 -88.2731 297° West 266 306 10,900 2,160 Climbing Chicago Center
08:25PM 41.8636 -88.3747 269° West 275 316 12,000 540 Climbing Chicago Center
08:26PM 41.8608 -88.4758 268° West 275 316 12,100 180 Climbing Chicago Center
08:27PM 41.9167 -88.5983 302° West 340 391 12,400 1,020 Climbing Chicago Center
08:28PM 41.9794 -88.6933 312° West 343 395 14,300 2,220 Climbing Chicago Center
08:29PM 42.0072 -88.8131 287° West 350 403 17,100 2,340 Climbing Chicago Center
08:30PM 42.0206 -88.9456 278° West 359 413 19,200 2,220 Climbing Chicago Center
08:31PM 42.0375 -89.0861 279° West 378 435 21,700 2,520 Climbing Chicago Center
08:33PM 42.0581 -89.2578 279° West 391 450 24,500 2,040 Climbing Chicago Center
08:34PM 42.0742 -89.3892 279° West 396 456 26,000 1,500 Climbing Chicago Center
08:35PM 42.0975 -89.5667 280° West 412 474 27,700 1,680 Climbing Chicago Center
08:36PM 42.1036 -89.7247 273° West 419 482 29,500 1,620 Climbing Chicago Center
08:37PM 42.1019 -89.8814 269° West 417 480 31,100 1,500 Climbing Chicago Center
08:38PM 42.0994 -90.0314 269° West 421 484 32,700 1,620 Climbing Chicago Center
08:39PM 42.1194 -90.1817 280° West 413 475 34,500 1,560 Climbing Chicago Center
08:40PM 42.1644 -90.3533 290° West 407 468 36,000 720 Climbing Chicago Center
08:41PM 42.2019 -90.4953 290° West 405 466 36,000  Level Chicago Center
08:42PM 42.2397 -90.6372 290° West 406 467 36,000  Level Chicago Center
08:43PM 42.2764 -90.7803 289° West 406 467 36,000  Level Chicago Center
08:44PM 42.3136 -90.9228 289° West 406 467 36,000  Level Chicago Center
08:45PM 42.3583 -91.0986 289° West 413 475 36,000  Level Chicago Center
08:46PM 42.3956 -91.2439 289° West 412 474 36,000  Level Chicago Center
08:47PM 42.4317 -91.3903 289° West 411 473 36,000  Level Chicago Center
08:48PM 42.4689 -91.5369 289° West 413 475 36,000  Level Chicago Center
08:49PM 42.5064 -91.6853 289° West 415 478 36,000  Level Chicago Center
08:50PM 42.5425 -91.8350 288° West 416 479 36,000  Level Chicago Center
08:51PM 42.5797 -91.9828 289° West 413 475 36,000  Level Chicago Center
08:52PM 42.6225 -92.1625 288° West 418 481 36,000  Level Chicago Center
08:53PM 42.6458 -92.2553 289° West 420 483 36,000  Level Minneapolis Center
08:54PM 42.6819 -92.4042 288° West 419 482 36,000  Level Minneapolis Center
08:55PM 42.7306 -92.6103 288° West 413 475 36,000  Level Minneapolis Center
08:56PM 42.7667 -92.7575 289° West 413 475 36,000  Level Minneapolis Center
08:57PM 42.8006 -92.9053 287° West 414 476 36,000  Level Minneapolis Center
08:58PM 42.8358 -93.0525 288° West 411 473 36,000  Level Minneapolis Center
08:59PM 42.8694 -93.1986 287° West 410 472 36,000  Level Minneapolis Center
09:00PM 42.9106 -93.3733 288° West 407 468 36,000  Level Minneapolis Center
09:01PM 42.9444 -93.5189 288° West 405 466 36,000  Level Minneapolis Center
09:03PM 42.9847 -93.6925 288° West 406 467 36,000  Level Minneapolis Center
09:04PM 43.0178 -93.8367 287° West 401 461 36,000  Level Minneapolis Center
09:05PM 43.0500 -93.9808 287° West 400 460 36,000  Level Minneapolis Center
09:06PM 43.0872 -94.1536 286° West 397 457 36,000  Level Minneapolis Center
09:07PM 43.1203 -94.2919 288° West 398 458 36,000  Level Minneapolis Center
09:08PM 43.1517 -94.4367 287° West 397 457 36,000  Level Minneapolis Center
09:09PM 43.1839 -94.5828 287° West 399 459 36,000  Level Minneapolis Center
09:10PM 43.2217 -94.7556 287° West 396 456 36,000  Level Minneapolis Center
09:11PM 43.2528 -94.9006 286° West 396 456 36,000  Level Minneapolis Center
09:12PM 43.2844 -95.0458 287° West 398 458 36,000  Level Minneapolis Center
09:13PM 43.3300 -95.1789 295° West 397 457 36,000  Level Minneapolis Center
09:14PM 43.3992 -95.2978 309° West 398 458 36,000  Level Minneapolis Center
09:15PM 43.4678 -95.4139 309° West 394 453 36,000  Level Minneapolis Center
09:16PM 43.5106 -95.5833 289° West 391 450 36,000  Level Minneapolis Center
09:17PM 43.5392 -95.7261 285° West 389 448 36,000  Level Minneapolis Center
09:18PM 43.5678 -95.8689 286° West 387 445 36,000  Level Minneapolis Center
09:19PM 43.5958 -96.0117 285° West 386 444 36,000  Level Minneapolis Center
09:20PM 43.6253 -96.1553 286° West 386 444 36,000  Level Minneapolis Center
09:21PM 43.6525 -96.3003 285° West 388 447 36,000  Level Minneapolis Center
09:22PM 43.6861 -96.4739 285° West 388 447 36,000  Level Minneapolis Center
09:23PM 43.7136 -96.6169 285° West 386 444 36,000  Level Minneapolis Center
09:24PM 43.7411 -96.7569 285° West 378 435 36,000  Level Minneapolis Center
09:25PM 43.7675 -96.8975 285° West 377 434 36,000  Level Minneapolis Center
09:27PM 43.7939 -97.0392 285° West 378 435 36,000  Level Minneapolis Center
09:28PM 43.8264 -97.2086 285° West 379 436 36,000  Level Minneapolis Center
09:29PM 43.8517 -97.3497 284° West 378 435 36,000  Level Minneapolis Center
09:30PM 43.8781 -97.4897 285° West 376 433 36,000  Level Minneapolis Center
09:31PM 43.9086 -97.6564 284° West 374 430 36,000  Level Minneapolis Center
09:32PM 43.9331 -97.7936 284° West 369 425 36,000  Level Minneapolis Center
09:33PM 43.9594 -97.9314 285° West 369 425 36,000  Level Minneapolis Center
09:34PM 43.9825 -98.0669 283° West 364 419 36,000  Level Minneapolis Center
09:35PM 44.0067 -98.2028 284° West 363 418 36,000  Level Minneapolis Center
09:36PM 44.0314 -98.3397 284° West 364 419 36,000  Level Minneapolis Center
09:37PM 44.0547 -98.4761 283° West 365 420 36,000  Level Minneapolis Center
09:38PM 44.0786 -98.6153 283° West 369 425 36,000  Level Minneapolis Center
09:39PM 44.1053 -98.7636 284° West 371 427 36,000  Level Minneapolis Center
09:40PM 44.1297 -98.9028 284° West 371 427 36,000  Level Minneapolis Center
09:41PM 44.1528 -99.0419 283° West 369 425 36,000  Level Minneapolis Center
09:42PM 44.1767 -99.1808 284° West 369 425 36,000  Level Minneapolis Center
09:43PM 44.2036 -99.3467 283° West 367 422 36,000  Level Minneapolis Center
09:44PM 44.2267 -99.4856 283° West 366 421 36,000  Level Minneapolis Center
09:45PM 44.2492 -99.6231 283° West 364 419 36,000  Level Minneapolis Center
09:46PM 44.2714 -99.7592 283° West 361 415 36,000  Level Minneapolis Center
09:47PM 44.2936 -99.8947 283° West 359 413 36,000  Level Minneapolis Center
09:48PM 44.3147 -100.0308 282° West 358 412 36,000  Level Minneapolis Center
09:49PM 44.3361 -100.1678 282° West 359 413 36,000  Level Minneapolis Center
09:50PM 44.3569 -100.3061 282° West 361 415 36,000  Level Minneapolis Center
09:51PM 44.3789 -100.4433 283° West 361 415 36,000  Level Minneapolis Center
09:52PM 44.4008 -100.5814 283° West 362 417 36,000  Level Minneapolis Center
09:53PM 44.4225 -100.7192 282° West 362 417 36,000  Level Minneapolis Center
09:54PM 44.4431 -100.8578 282° West 363 418 36,000  Level Minneapolis Center
09:55PM 44.4636 -100.9986 282° West 365 420 36,000 240 Level Minneapolis Center
09:56PM 44.4903 -101.1661 283° West 366 421 36,500 600 Climbing Minneapolis Center
09:58PM 44.5339 -101.4519 282° West 363 418 38,000 540 Climbing Salt Lake Center
09:59PM 44.5375 -101.4967 276° West 363 418 38,000  Level Denver Center
09:59PM 44.5506 -101.5800 282° West 362 417 38,000  Level Minneapolis Center
10:00PM 44.5581 -101.6347 281° West 361 415 38,000  Level Denver Center
10:00PM 44.5706 -101.7181 282° West 361 415 38,000  Level Minneapolis Center
10:01PM 44.5922 -101.8544 283° West 359 413 38,000  Level Minneapolis Center
10:02PM 44.6008 -101.9353 279° West 358 412 38,000  Level Denver Center
10:03PM 44.6189 -102.0722 281° West 358 412 38,000  Level Denver Center
10:04PM 44.6386 -102.2108 281° West 361 415 38,000  Level Denver Center
10:05PM 44.6586 -102.3497 281° West 361 415 38,000  Level Denver Center
10:06PM 44.6775 -102.4889 281° West 363 418 38,000  Level Denver Center
10:07PM 44.6964 -102.6283 281° West 363 418 38,000  Level Denver Center
10:08PM 44.7192 -102.7956 281° West 363 418 38,000  Level Denver Center
10:09PM 44.7378 -102.9333 281° West 360 414 38,000  Level Denver Center
10:10PM 44.7561 -103.0708 281° West 358 412 38,000  Level Denver Center
10:11PM 44.7744 -103.2106 281° West 361 415 38,000  Level Denver Center
10:12PM 44.7919 -103.3494 280° West 362 417 38,000  Level Denver Center
10:13PM 44.8094 -103.4856 280° West 354 407 38,000  Level Denver Center
10:14PM 44.8308 -103.6469 281° West 353 406 38,000  Level Denver Center
10:15PM 44.8461 -103.7786 279° West 356 410 38,000  Level Denver Center
10:16PM 44.8633 -103.9128 280° West 364 419 38,000  Level Denver Center
10:17PM 44.8750 -104.0003 281° West 365 420 38,000  Level Salt Lake Center
10:18PM 44.8914 -104.1342 280° West 363 418 38,000  Level Salt Lake Center
10:19PM 44.9067 -104.2669 279° West 359 413 38,000  Level Salt Lake Center
10:20PM 44.9192 -104.3794 279° West 360 414 38,000  Level Denver Center
10:21PM 44.9378 -104.5369 280° West 364 419 38,000  Level Denver Center
10:22PM 44.9528 -104.6628 280° West 365 420 38,000  Level Denver Center
10:22PM 44.9583 -104.7069 280° West 365 420 38,000  Level Salt Lake Center
10:23PM 44.9742 -104.8408 280° West 362 417 38,000  Level Salt Lake Center
10:24PM 44.9850 -104.9525 278° West 359 413 38,000  Level Denver Center
10:24PM 44.9908 -104.9958 281° West 360 414 38,000  Level Salt Lake Center
10:25PM 45.0064 -105.1289 279° West 358 412 38,000  Level Salt Lake Center
10:26PM 45.0175 -105.2386 278° West 354 407 38,000  Level Denver Center
10:27PM 45.0342 -105.3928 279° West 354 407 38,000  Level Denver Center
10:28PM 45.0489 -105.5261 279° West 358 412 38,000  Level Denver Center
10:29PM 45.0625 -105.6592 278° West 358 412 38,000  Level Denver Center
10:30PM 45.0797 -105.8136 279° West 356 410 38,000  Level Denver Center
10:31PM 45.0942 -105.9514 278° West 366 421 38,000  Level Denver Center
10:31PM 45.0989 -105.9975 278° West 371 427 38,000  Level Salt Lake Center
10:32PM 45.1142 -106.1372 279° West 375 432 38,000  Level Salt Lake Center
10:33PM 45.1303 -106.2981 278° West 371 427 38,000  Level Salt Lake Center
10:34PM 45.1444 -106.4392 278° West 377 434 38,000  Level Salt Lake Center
10:35PM 45.1589 -106.5794 278° West 376 433 38,000  Level Salt Lake Center
10:36PM 45.1736 -106.7350 278° West 361 415 38,000  Level Salt Lake Center
10:37PM 45.1872 -106.8689 278° West 358 412 38,000  Level Salt Lake Center
10:38PM 45.2017 -107.0192 278° West 347 399 38,000  Level Salt Lake Center
10:39PM 45.2125 -107.1419 277° West 332 382 38,000  Level Salt Lake Center
10:40PM 45.2247 -107.2781 277° West 317 365 38,000  Level Salt Lake Center
10:41PM 45.2356 -107.3956 278° West 315 362 38,000  Level Salt Lake Center
10:42PM 45.2464 -107.5108 278° West 312 359 38,000  Level Salt Lake Center
10:43PM 45.2583 -107.6486 277° West 317 365 38,000  Level Salt Lake Center
10:45PM 45.2694 -107.7708 277° West 327 376 38,000  Level Salt Lake Center
10:46PM 45.2814 -107.9142 277° West 331 381 38,000  Level Salt Lake Center
10:47PM 45.2931 -108.0414 277° West 342 394 38,000  Level Salt Lake Center
10:48PM 45.3061 -108.1917 277° West 345 397 38,000  Level Salt Lake Center
10:49PM 45.3167 -108.3256 276° West 357 411 38,000  Level Salt Lake Center
10:50PM 45.3292 -108.4839 276° West 362 417 38,000  Level Salt Lake Center
10:51PM 45.3406 -108.6142 277° West 350 403 38,000  Level Salt Lake Center
10:52PM 45.3503 -108.7375 276° West 332 382 38,000  Level Salt Lake Center
10:53PM 45.3622 -108.8817 277° West 331 381 38,000  Level Salt Lake Center
10:54PM 45.3714 -109.0039 276° West 326 375 38,000  Level Salt Lake Center
10:55PM 45.3819 -109.1461 276° West 326 375 38,000  Level Salt Lake Center
10:56PM 45.3911 -109.2756 276° West 341 392 38,000  Level Salt Lake Center
10:57PM 45.4011 -109.4025 276° West 340 391 38,000  Level Salt Lake Center
10:58PM 45.4128 -109.5569 276° West 352 405 38,000  Level Salt Lake Center
10:59PM 45.4228 -109.6908 276° West 356 410 38,000  Level Salt Lake Center
11:00PM 45.4347 -109.8469 276° West 356 410 38,000  Level Salt Lake Center
11:01PM 45.4439 -109.9794 276° West 353 406 38,000  Level Salt Lake Center
11:02PM 45.4525 -110.1153 275° West 357 411 38,000  Level Salt Lake Center
11:03PM 45.4628 -110.2739 275° West 359 413 38,000  Level Salt Lake Center
11:04PM 45.4714 -110.4097 275° West 360 414 38,000  Level Salt Lake Center
11:05PM 45.4814 -110.5739 275° West 368 423 38,000  Level Salt Lake Center
11:06PM 45.4889 -110.7167 274° West 363 418 38,000  Level Salt Lake Center
11:07PM 45.4978 -110.8622 275° West 368 423 38,000  Level Salt Lake Center
11:08PM 45.5069 -111.0108 275° West 373 429 38,000  Level Salt Lake Center
11:09PM 45.5153 -111.1603 275° West 373 429 38,000  Level Salt Lake Center
11:10PM 45.5233 -111.3078 275° West 369 425 38,000  Level Salt Lake Center
11:11PM 45.5314 -111.4533 275° West 365 420 38,000  Level Salt Lake Center
11:12PM 45.5392 -111.5997 274° West 368 423 38,000  Level Salt Lake Center
11:13PM 45.5472 -111.7433 275° West 365 420 38,000  Level Salt Lake Center
11:14PM 45.5542 -111.8853 274° West 360 414 38,000  Level Salt Lake Center
11:15PM 45.5611 -112.0347 274° West 371 427 38,000  Level Salt Lake Center
11:16PM 45.5692 -112.1836 274° West 375 432 38,000  Level Salt Lake Center
11:17PM 45.5750 -112.3261 273° West 365 420 38,000  Level Salt Lake Center
11:18PM 45.5819 -112.4661 274° West 356 410 38,000  Level Salt Lake Center
11:19PM 45.5894 -112.6419 274° West 366 421 38,000  Level Salt Lake Center
11:20PM 45.5964 -112.7881 274° West 368 423 38,000  Level Salt Lake Center
11:21PM 45.6017 -112.9364 273° West 371 427 38,000  Level Salt Lake Center
11:22PM 45.6094 -113.0858 274° West 375 432 38,000  Level Salt Lake Center
11:23PM 45.6139 -113.2336 273° West 373 429 38,000  Level Salt Lake Center
11:24PM 45.6194 -113.3764 273° West 364 419 38,000 -60 Level Salt Lake Center
11:25PM 45.6256 -113.5150 274° West 353 406 37,900  Descending Salt Lake Center
11:26PM 45.6319 -113.6525 274° West 345 397 38,000  Climbing Salt Lake Center
11:27PM 45.6378 -113.7889 274° West 345 397 38,000  Level Salt Lake Center
11:28PM 45.6419 -113.9192 273° West 333 383 38,000  Level Salt Lake Center
11:29PM 45.6456 -114.0489 272° West 328 377 38,000 -60 Level Salt Lake Center
11:31PM 45.6500 -114.1806 273° West 332 382 37,900  Descending Salt Lake Center
11:32PM 45.6536 -114.3106 272° West 330 380 38,000  Climbing Salt Lake Center
11:33PM 45.6575 -114.4586 272° West 321 369 38,000  Level Salt Lake Center
11:34PM 45.6606 -114.5822 272° West 325 374 38,000  Level Salt Lake Center
11:35PM 45.6656 -114.7267 273° West 325 374 38,000  Level Salt Lake Center
11:36PM 45.6694 -114.8542 273° West 333 383 38,000  Level Salt Lake Center
11:37PM 45.6717 -114.9806 271° West 334 384 38,000  Level Salt Lake Center
11:38PM 45.6756 -115.1283 272° West 334 384 38,000  Level Salt Lake Center
11:39PM 45.6781 -115.2519 272° West 329 379 38,000  Level Salt Lake Center
11:40PM 45.6814 -115.3942 272° West 324 373 38,000  Level Salt Lake Center
11:40PM 45.6828 -115.4567 272° West 325 374 38,000  Level Seattle Center
11:41PM 45.6844 -115.5817 271° West 323 372 38,000  Level Seattle Center
11:42PM 45.6853 -115.6386 271° West 321 369 38,000  Level Salt Lake Center
11:43PM 45.6883 -115.7831 272° West 325 374 38,000  Level Salt Lake Center
11:44PM 45.6903 -115.9050 271° West 323 372 38,000  Level Salt Lake Center
11:44PM 45.6914 -115.9669 271° West 325 374 38,000  Level Seattle Center
11:45PM 45.6928 -116.0908 271° West 319 367 38,000 -60 Level Seattle Center
11:46PM 45.6947 -116.2414 271° West 316 364 37,900  Descending Seattle Center
11:47PM 45.6967 -116.3656 271° West 314 361 38,000  Climbing Seattle Center
11:48PM 45.6986 -116.4944 271° West 319 367 38,000  Level Seattle Center
11:49PM 45.6997 -116.6286 271° West 329 379 38,000  Level Seattle Center
11:50PM 45.7000 -116.7628 270° West 336 387 38,000  Level Seattle Center
11:51PM 45.7017 -116.8939 271° West 333 383 38,000  Level Seattle Center
11:52PM 45.7022 -117.0272 270° West 336 387 38,000  Level Seattle Center
11:53PM 45.7039 -117.1619 271° West 338 389 38,000  Level Seattle Center
11:54PM 45.7036 -117.2986 270° West 344 396 38,000 -60 Level Seattle Center
11:55PM 45.7047 -117.4372 271° West 348 400 37,900 -600 Descending Seattle Center
11:56PM 45.7044 -117.5717 270° West 341 392 36,900 -960 Descending Seattle Center
11:58PM 45.7044 -117.7064 270° West 339 390 36,000 -480 Descending Seattle Center
11:59PM 45.7042 -117.8308 270° West 318 366 36,000 -120 Level Seattle Center
12:00AM 45.7042 -117.9589 270° West 321 369 35,800 -600 Descending Seattle Center
12:01AM 45.7047 -118.0900 270° West 329 379 34,800 -960 Descending Seattle Center
12:02AM 45.7033 -118.2194 269° West 328 377 33,900 -420 Descending Seattle Center
12:03AM 45.7028 -118.3492 270° West 327 376 34,000  Climbing Seattle Center
12:04AM 45.7025 -118.4786 270° West 327 376 34,000  Level Seattle Center
12:05AM 45.6994 -118.6289 268° West 328 377 34,000  Level Seattle Center
12:06AM 45.6986 -118.7594 270° West 330 380 34,000  Level Seattle Center
12:07AM 45.6983 -118.8917 270° West 334 384 34,000  Level Seattle Center
12:08AM 45.6897 -119.0236 265° West 339 390 34,000  Level Seattle Center
12:09AM 45.6742 -119.1558 260° West 340 391 34,000  Level Seattle Center
12:10AM 45.6586 -119.2900 261° West 343 395 34,000  Level Seattle Center
12:11AM 45.6431 -119.4244 261° West 345 397 34,000  Level Seattle Center
12:12AM 45.6281 -119.5603 261° West 347 399 34,000  Level Seattle Center
12:13AM 45.6219 -119.6956 266° West 345 397 34,000  Level Seattle Center
12:14AM 45.6167 -119.8306 267° West 343 395 34,000  Level Seattle Center
12:15AM 45.6108 -119.9667 267° West 344 396 34,000  Level Seattle Center
12:16AM 45.6033 -120.1297 266° West 346 398 34,000  Level Seattle Center
12:17AM 45.5978 -120.2628 267° West 342 394 34,000  Level Seattle Center
12:18AM 45.5914 -120.3958 266° West 340 391 34,000 -840 Level Seattle Center
12:19AM 45.5856 -120.5297 266° West 342 394 32,300 -2,040 Descending Seattle Center
12:20AM 45.5800 -120.6561 266° West 325 374 30,000 -2,160 Descending Seattle Center
12:21AM 45.5731 -120.7772 265° West 310 357 28,000 -1,980 Descending Seattle Center
12:22AM 45.5683 -120.8953 267° West 299 344 26,000 -2,040 Descending Seattle Center
12:23AM 45.5614 -121.0106 265° West 294 338 24,000 -2,040 Descending Seattle Center
12:24AM 45.5564 -121.1242 266° West 287 330 22,000 -1,920 Descending Seattle Center
12:25AM 45.5506 -121.2408 266° West 294 338 20,100 -2,160 Descending Seattle Center
12:26AM 45.5428 -121.3669 265° West 303 349 17,900 -2,100 Descending Seattle Center
12:26AM 45.5419 -121.4139 269° West 303 349 17,400 -1,560 Descending Seattle Center
12:27AM 45.5375 -121.4792 264° West 303 349 16,200 -1,980 Descending Seattle Center
12:27AM 45.5350 -121.5344 266° West 303 349 15,400 -1,980 Descending Seattle Center
12:28AM 45.5306 -121.5986 264° West 302 348 14,200 -2,040 Descending Seattle Center
12:28AM 45.5269 -121.6617 265° West 297 342 13,200 -2,040 Descending Seattle Center
12:29AM 45.5244 -121.7139 266° West 294 338 12,200 -2,100 Descending Seattle Center
12:29AM 45.5208 -121.7664 264° West 295 339 11,300 -1,920 Descending Seattle Center
12:30AM 45.5169 -121.8292 265° West 292 336 10,300 -1,140 Descending Seattle Center
12:30AM 45.5142 -121.8806 266° West 275 316 10,200 -900 Descending Seattle Center
12:31AM 45.5167 -121.9383 274° West 272 313 9,400 -1,380 Descending Seattle Center
12:31AM 45.5197 -121.9803 276° West 247 284 8,800 -900 Descending Seattle Center
12:32AM 45.5117 -122.0375 259° West 258 297 8,500 -540 Descending Seattle Center
12:32AM 45.5008 -122.0775 249° West 228 262 8,300 -720 Descending Seattle Center
12:33AM 45.4950 -122.1181 258° West 219 252 7,800 -1,140 Descending Seattle Center
12:33AM 45.4858 -122.1519 249° West 185 213 7,200 -1,320 Descending Seattle Center
12:34AM 45.4803 -122.1894 258° West 194 223 6,500 -1,320 Descending Seattle Center
12:34AM 45.4839 -122.2267 278° West 186 214 5,900 -1,620 Descending Seattle Center
12:35AM 45.4903 -122.2778 280° West 188 216 4,900 -1,440 Descending Seattle Center
12:35AM 45.4906 -122.3011 271° West 188 216 4,500 -1,740 Descending Seattle Center
12:36AM 45.4997 -122.3500 285° West 189 217 3,200 -1,080 Descending Seattle Center
12:37AM 45.5197 -122.4044 298° West 162 186 2,700 -600 Descending Seattle Center
12:38AM 45.5394 -122.4547 299° West 151 174 2,100 -780 Descending Seattle Center
12:39AM 45.5575 -122.5000 300° West 142 163 1,200 -780 Descending Seattle Center
12:40AM 45.5764 -122.5528 297° West 128 147 400 16,260 Descending Seattle Center
12:41AM 45.5931 -122.5894 303° West 131 151 34,000 41,100 Climbing Seattle Center